Time;durP1;ratioP1;P1;durP2;ratioP2;P2;SDS_P1;SDS_P2;PMS_P1;PMS_P2;Temp;Humidity;BMP_temperature;BMP_pressure;BME280_temperature;BME280_humidity;BME280_pressure;Samples;Min_cycle;Max_cycle;Signal;HPM_P1;HPM_P2
2022/07/12 00:00:23;;;;;;;2.30;2.00;;;;;;;18.98;99.64;96696.78;5018228;28;20207;-78
2022/07/12 00:02:50;;;;;;;3.00;2.08;;;;;;;18.97;99.71;96697.06;5014083;28;20195;-78
2022/07/12 00:05:17;;;;;;;2.92;2.15;;;;;;;18.92;99.31;96697.88;5036598;28;20219;-78
2022/07/12 00:07:45;;;;;;;3.30;2.10;;;;;;;18.95;99.81;96700.06;5020304;28;20211;-77
2022/07/12 00:10:12;;;;;;;3.13;1.90;;;;;;;18.97;100.00;96708.00;5053166;28;20274;-78
2022/07/12 00:12:40;;;;;;;2.85;2.47;;;;;;;18.97;99.96;96699.81;5022236;28;20231;-78
2022/07/12 00:15:09;;;;;;;3.72;2.63;;;;;;;18.97;99.63;96702.53;5019882;28;20211;-79
2022/07/12 00:17:38;;;;;;;2.85;2.33;;;;;;;18.96;100.00;96706.38;5057343;28;20250;-78
2022/07/12 00:20:06;;;;;;;5.82;2.30;;;;;;;18.80;100.00;96703.63;5049153;28;20202;-77
2022/07/12 00:22:33;;;;;;;3.33;2.35;;;;;;;18.78;100.00;96707.75;5026574;28;20238;-78
2022/07/12 00:25:02;;;;;;;3.13;2.10;;;;;;;18.68;100.00;96697.63;5042110;28;20229;-79
2022/07/12 00:27:29;;;;;;;3.22;2.33;;;;;;;18.66;100.00;96701.72;5027619;28;20238;-78
2022/07/12 00:29:56;;;;;;;4.95;2.40;;;;;;;18.63;100.00;96694.84;5013502;28;21705;-79
2022/07/12 00:32:23;;;;;;;4.57;2.70;;;;;;;18.59;100.00;96699.25;5028471;28;20251;-78
2022/07/12 00:34:50;;;;;;;3.08;2.00;;;;;;;18.56;100.00;96697.00;5022479;28;20213;-79
2022/07/12 00:37:17;;;;;;;4.47;2.50;;;;;;;18.57;100.00;96698.69;5050444;28;20210;-78
2022/07/12 00:39:44;;;;;;;2.75;1.90;;;;;;;18.60;100.00;96700.91;5023890;28;20214;-79
2022/07/12 00:42:13;;;;;;;2.47;2.28;;;;;;;18.52;100.00;96695.94;5025768;28;20211;-79
2022/07/12 00:44:40;;;;;;;2.22;2.00;;;;;;;18.39;100.00;96696.44;5015655;28;20191;-78
2022/07/12 00:47:07;;;;;;;3.40;2.28;;;;;;;18.33;100.00;96695.63;5019720;28;20277;-78
2022/07/12 00:49:34;;;;;;;3.97;2.20;;;;;;;18.35;100.00;96692.63;5021947;28;20213;-78
2022/07/12 00:52:02;;;;;;;3.85;2.30;;;;;;;18.25;100.00;96695.34;5045583;28;20314;-78
2022/07/12 00:54:29;;;;;;;3.10;2.03;;;;;;;18.24;100.00;96694.53;5016005;28;20222;-78
2022/07/12 00:56:56;;;;;;;2.10;1.90;;;;;;;18.25;100.00;96700.81;5042135;28;20223;-78
2022/07/12 00:59:24;;;;;;;3.53;2.00;;;;;;;18.31;100.00;96705.19;5032361;28;20210;-78
2022/07/12 01:01:51;;;;;;;3.30;2.03;;;;;;;18.31;100.00;96705.19;5029689;28;20293;-78
2022/07/12 01:04:18;;;;;;;2.77;2.10;;;;;;;18.32;100.00;96706.84;5017766;28;20207;-78
2022/07/12 01:06:46;;;;;;;3.75;2.38;;;;;;;18.31;100.00;96716.13;5023256;28;20218;-78
2022/07/12 01:09:13;;;;;;;4.13;2.45;;;;;;;18.23;100.00;96708.44;5051747;28;20214;-79
2022/07/12 01:11:40;;;;;;;2.70;2.37;;;;;;;18.14;100.00;96710.88;5016991;28;20226;-78
2022/07/12 01:14:08;;;;;;;6.10;2.50;;;;;;;18.11;100.00;96712.28;5019503;28;20209;-78
2022/07/12 01:16:38;;;;;;;2.50;2.30;;;;;;;17.99;100.00;96713.59;5025479;28;20203;-78
2022/07/12 01:19:07;;;;;;;2.40;2.20;;;;;;;17.95;100.00;96718.75;5027766;28;20199;-78
2022/07/12 01:21:38;;;;;;;3.50;2.47;;;;;;;17.89;100.00;96722.56;5044291;28;20206;-78
2022/07/12 01:24:08;;;;;;;2.73;2.53;;;;;;;17.76;100.00;96721.16;5032181;28;20218;-78
2022/07/12 01:26:37;;;;;;;3.87;2.37;;;;;;;17.77;100.00;96728.25;5054003;28;20299;-78
2022/07/12 01:29:05;;;;;;;2.60;2.40;;;;;;;17.75;100.00;96730.44;5011671;28;20217;-79
2022/07/12 01:31:32;;;;;;;4.20;2.60;;;;;;;17.65;100.00;96735.03;5024075;28;20211;-77
2022/07/12 01:34:00;;;;;;;4.57;2.20;;;;;;;17.63;100.00;96734.47;5014334;28;20235;-78
2022/07/12 01:36:27;;;;;;;3.63;2.43;;;;;;;17.59;100.00;96730.59;5014507;28;20202;-78
2022/07/12 01:38:54;;;;;;;4.70;2.70;;;;;;;17.53;100.00;96737.09;5018088;28;20202;-78
2022/07/12 01:41:24;;;;;;;3.07;2.77;;;;;;;17.35;100.00;96739.19;5034001;28;20213;-78
2022/07/12 01:43:52;;;;;;;2.87;2.50;;;;;;;17.28;100.00;96732.31;5031236;28;20204;-78
2022/07/12 01:46:19;;;;;;;4.00;2.57;;;;;;;17.19;100.00;96723.78;5031083;28;20207;-78
2022/07/12 01:48:46;;;;;;;3.27;2.27;;;;;;;17.20;100.00;96722.72;5019346;28;20203;-77
2022/07/12 01:51:13;;;;;;;2.60;2.40;;;;;;;17.28;100.00;96729.59;5018953;28;20585;-78
2022/07/12 01:53:40;;;;;;;2.43;2.23;;;;;;;17.25;100.00;96728.22;5009106;28;20235;-78
2022/07/12 01:56:08;;;;;;;3.67;2.67;;;;;;;17.29;100.00;96723.03;5036530;28;20227;-78
2022/07/12 01:58:38;;;;;;;5.13;2.50;;;;;;;17.19;100.00;96726.53;5045717;28;20302;-78
2022/07/12 02:01:06;;;;;;;3.73;2.47;;;;;;;17.05;100.00;96722.63;5020383;28;20217;-78
2022/07/12 02:03:35;;;;;;;5.10;2.80;;;;;;;16.97;100.00;96728.56;5016216;28;20207;-78
2022/07/12 02:06:02;;;;;;;3.27;2.70;;;;;;;16.91;100.00;96715.97;5019544;28;20222;-77
2022/07/12 02:08:29;;;;;;;3.47;2.73;;;;;;;16.92;100.00;96721.19;5026138;28;20233;-78
2022/07/12 02:10:56;;;;;;;3.27;2.70;;;;;;;17.00;100.00;96725.31;5023427;28;20203;-78
2022/07/12 02:13:23;;;;;;;2.60;2.40;;;;;;;17.11;100.00;96737.94;5021448;28;20226;-78
2022/07/12 02:15:52;;;;;;;3.03;2.83;;;;;;;17.10;100.00;96736.28;5011347;28;20227;-78
2022/07/12 02:18:19;;;;;;;4.03;2.50;;;;;;;17.15;100.00;96741.78;5016151;28;20202;-77
2022/07/12 02:20:46;;;;;;;2.70;2.50;;;;;;;17.08;100.00;96740.38;5029220;28;20215;-78
2022/07/12 02:23:13;;;;;;;2.80;2.60;;;;;;;16.97;100.00;96734.84;5019557;28;20207;-78
2022/07/12 02:25:40;;;;;;;4.30;2.57;;;;;;;16.88;100.00;96738.31;5014581;28;20513;-78
2022/07/12 02:28:07;;;;;;;5.40;2.63;;;;;;;16.90;100.00;96736.97;5016343;28;20228;-78
2022/07/12 02:30:35;;;;;;;2.60;2.40;;;;;;;16.92;100.00;96740.28;5026840;28;20334;-78
2022/07/12 02:33:03;;;;;;;3.93;2.40;;;;;;;16.90;100.00;96719.78;5047314;28;20219;-77
2022/07/12 02:35:30;;;;;;;4.60;2.80;;;;;;;16.87;100.00;96731.19;5031473;28;20211;-77
2022/07/12 02:37:57;;;;;;;5.47;3.50;;;;;;;16.83;100.00;96739.09;5023633;28;20454;-78
2022/07/12 02:43:09;;;;;;;3.10;2.57;;;;;;;16.81;100.00;96732.25;5033060;28;20208;-78
2022/07/12 02:45:35;;;;;;;3.60;2.70;;;;;;;16.84;100.00;96734.47;5040902;28;20215;-78
2022/07/12 02:48:04;;;;;;;3.07;2.77;;;;;;;16.85;100.00;96733.34;5036055;28;20222;-78
2022/07/12 02:50:31;;;;;;;2.93;2.73;;;;;;;16.87;100.00;96731.19;5017730;28;20207;-79
2022/07/12 02:52:58;;;;;;;4.33;2.73;;;;;;;16.81;100.00;96724.06;5022749;28;20231;-77
2022/07/12 02:55:25;;;;;;;4.17;2.70;;;;;;;16.68;100.00;96727.22;5033080;28;20205;-78
2022/07/12 02:57:53;;;;;;;3.00;2.80;;;;;;;16.71;100.00;96729.44;5036348;28;20223;-77
2022/07/12 03:00:19;;;;;;;2.97;2.60;;;;;;;16.61;100.00;96728.25;5015787;28;20199;-78
2022/07/12 03:02:47;;;;;;;4.00;2.90;;;;;;;16.48;100.00;96728.66;5040485;28;20215;-78
2022/07/12 03:05:15;;;;;;;3.10;2.80;;;;;;;16.37;100.00;96728.81;5022618;28;20341;-78
2022/07/12 03:07:43;;;;;;;3.60;3.10;;;;;;;16.34;100.00;96724.69;5016427;28;20233;-79
2022/07/12 03:10:11;;;;;;;3.20;2.90;;;;;;;16.44;100.00;96732.97;5031314;28;20257;-79
2022/07/12 03:12:39;;;;;;;3.77;2.80;;;;;;;16.48;100.00;96725.13;5055866;28;20209;-79
2022/07/12 03:15:08;;;;;;;4.73;2.80;;;;;;;16.56;100.00;96733.66;5053653;28;20293;-79
2022/07/12 03:17:35;;;;;;;3.83;2.90;;;;;;;16.68;100.00;96746.31;5026650;28;20489;-79
2022/07/12 03:20:04;;;;;;;5.17;2.87;;;;;;;16.65;100.00;96736.75;5023134;28;20206;-79
2022/07/12 03:22:33;;;;;;;4.27;2.70;;;;;;;16.62;100.00;96743.53;5031998;28;20241;-79
2022/07/12 03:25:00;;;;;;;3.47;2.63;;;;;;;16.67;100.00;96748.22;5015773;28;20210;-78
2022/07/12 03:27:27;;;;;;;4.23;2.70;;;;;;;16.60;100.00;96750.28;5032891;28;20558;-82
2022/07/12 03:29:54;;;;;;;3.93;3.10;;;;;;;16.61;100.00;96757.44;5017363;28;20215;-82
2022/07/12 03:32:21;;;;;;;4.17;3.20;;;;;;;16.69;100.00;96747.94;5027099;28;20279;-82
2022/07/12 03:34:48;;;;;;;3.20;2.90;;;;;;;16.72;100.00;96744.72;5029855;28;20318;-81
2022/07/12 03:37:16;;;;;;;3.50;3.07;;;;;;;16.57;100.00;96745.38;5021404;28;20213;-81
2022/07/12 03:39:44;;;;;;;4.93;3.60;;;;;;;16.52;100.00;96740.69;5024224;28;20209;-79
2022/07/12 03:42:12;;;;;;;3.67;2.77;;;;;;;16.55;100.00;96758.44;5050761;28;20204;-79
2022/07/12 03:44:39;;;;;;;3.23;2.90;;;;;;;16.54;100.00;96762.25;5024129;28;20203;-79
2022/07/12 03:47:06;;;;;;;4.10;2.90;;;;;;;16.48;100.00;96758.66;5051620;28;20218;-79
2022/07/12 03:49:33;;;;;;;4.40;3.10;;;;;;;16.48;100.00;96758.66;5020121;28;20203;-79
2022/07/12 03:52:02;;;;;;;2.53;2.33;;;;;;;16.52;100.00;96765.22;5046608;28;20215;-79
2022/07/12 03:54:29;;;;;;;3.30;2.90;;;;;;;16.61;100.00;96762.88;5015239;28;20222;-78
2022/07/12 03:57:16;;;;;;;7.83;3.53;;;;;;;16.59;100.00;96754.94;5047955;28;20235;-79
2022/07/12 03:59:43;;;;;;;3.63;3.17;;;;;;;16.63;100.00;96756.09;5023831;28;20212;-79
2022/07/12 04:02:10;;;;;;;4.07;2.97;;;;;;;16.71;100.00;96759.44;5028343;28;20211;-79
2022/07/12 04:04:37;;;;;;;3.23;2.83;;;;;;;16.68;100.00;96766.22;5010574;28;20301;-79
2022/07/12 04:07:05;;;;;;;3.10;2.80;;;;;;;16.71;100.00;96767.63;5043430;28;20202;-79
2022/07/12 04:09:33;;;;;;;4.97;3.03;;;;;;;16.67;100.00;96761.88;5021975;28;20308;-79
2022/07/12 04:12:01;;;;;;;5.70;3.80;;;;;;;16.68;100.00;96766.22;5021082;28;20230;-78
2022/07/12 04:14:29;;;;;;;6.13;3.63;;;;;;;16.68;100.00;96765.38;5014881;28;20222;-79
2022/07/12 04:16:56;;;;;;;5.40;3.20;;;;;;;16.70;100.00;96771.41;5011458;28;20207;-79
2022/07/12 04:19:27;;;;;;;3.50;3.20;;;;;;;16.74;100.00;96778.00;5026325;28;20223;-79
2022/07/12 04:21:55;;;;;;;3.67;2.80;;;;;;;16.75;100.00;96782.38;5041521;28;20206;-79
2022/07/12 04:24:22;;;;;;;4.07;2.93;;;;;;;16.61;100.00;96774.59;5033127;28;20211;-78
2022/07/12 04:26:50;;;;;;;3.57;2.87;;;;;;;16.60;100.00;96770.19;5052610;28;20243;-78
2022/07/12 04:29:18;;;;;;;3.70;3.10;;;;;;;16.61;100.00;96780.06;5026191;28;20211;-78
2022/07/12 04:31:46;;;;;;;4.90;3.17;;;;;;;16.66;100.00;96786.66;5033423;28;20249;-78
2022/07/12 04:34:16;;;;;;;3.93;3.40;;;;;;;16.62;100.00;96789.91;5052289;28;20215;-78
2022/07/12 04:36:44;;;;;;;3.70;3.40;;;;;;;16.64;100.00;96798.66;5043850;28;20195;-79
2022/07/12 04:39:11;;;;;;;4.17;2.93;;;;;;;16.65;100.00;96796.75;5018942;28;20210;-78
2022/07/12 04:41:39;;;;;;;3.73;2.97;;;;;;;16.71;100.00;96794.88;5019834;28;20512;-78
2022/07/12 04:44:06;;;;;;;2.90;2.70;;;;;;;16.79;100.00;96786.22;5016442;28;20203;-78
2022/07/12 04:46:35;;;;;;;4.43;2.73;;;;;;;16.80;100.00;96776.97;5044252;28;20257;-78
2022/07/12 04:49:03;;;;;;;3.63;2.90;;;;;;;16.83;100.00;96781.91;5050540;28;20233;-78
2022/07/12 04:51:30;;;;;;;4.90;3.27;;;;;;;16.88;100.00;96784.66;5031564;28;20438;-78
2022/07/12 04:53:58;;;;;;;3.93;3.20;;;;;;;16.91;100.00;96790.44;5039634;28;20226;-78
2022/07/12 04:56:25;;;;;;;3.77;3.20;;;;;;;16.91;100.00;96787.72;5018127;28;20223;-78
2022/07/12 04:58:52;;;;;;;3.50;3.20;;;;;;;16.97;100.00;96800.31;5013593;28;20210;-78
2022/07/12 05:01:19;;;;;;;5.27;3.30;;;;;;;17.01;100.00;96795.97;5024249;28;20229;-77
2022/07/12 05:03:48;;;;;;;4.80;3.30;;;;;;;16.92;100.00;96796.72;5029898;28;20230;-78
2022/07/12 05:06:16;;;;;;;5.57;3.80;;;;;;;16.88;100.00;96798.31;5022447;28;20203;-78
2022/07/12 05:08:43;;;;;;;4.97;3.80;;;;;;;16.72;100.00;96791.06;5025639;28;20202;-79
2022/07/12 05:11:10;;;;;;;6.57;3.70;;;;;;;16.61;100.00;96799.16;5048186;28;20281;-77
2022/07/12 05:13:37;;;;;;;4.63;3.20;;;;;;;16.69;100.00;96792.41;5045193;28;20254;-78
2022/07/12 05:16:04;;;;;;;3.20;2.63;;;;;;;16.72;100.00;96794.63;5030403;28;20208;-78
2022/07/12 05:18:31;;;;;;;4.03;3.30;;;;;;;16.78;100.00;96796.31;5024008;28;20226;-78
2022/07/12 05:21:00;;;;;;;5.50;3.17;;;;;;;16.81;100.00;96794.97;5013058;28;20210;-79
2022/07/12 05:23:27;;;;;;;5.00;2.80;;;;;;;16.80;100.00;96798.78;5030981;28;20238;-78
2022/07/12 05:25:54;;;;;;;5.63;3.17;;;;;;;16.80;100.00;96801.50;5017010;28;20266;-78
2022/07/12 05:28:21;;;;;;;5.23;2.83;;;;;;;16.83;100.00;96799.09;5030731;28;20222;-79
2022/07/12 05:30:49;;;;;;;5.90;2.90;;;;;;;16.89;100.00;96800.78;5038993;28;20215;-79
2022/07/12 05:33:16;;;;;;;4.97;3.23;;;;;;;16.87;100.00;96799.38;5016569;28;20242;-78
2022/07/12 05:35:43;;;;;;;4.20;3.40;;;;;;;16.86;100.00;96795.00;5024963;28;20241;-78
2022/07/12 05:38:11;;;;;;;3.80;2.83;;;;;;;16.92;100.00;96785.81;5024582;28;20212;-78
2022/07/12 05:40:38;;;;;;;3.57;2.90;;;;;;;16.93;100.00;96795.63;5052142;28;20206;-79
2022/07/12 05:43:05;;;;;;;4.10;3.20;;;;;;;16.94;100.00;96795.38;5013352;28;20199;-79
2022/07/12 05:45:32;;;;;;;3.73;3.30;;;;;;;16.94;100.00;96797.28;5041209;28;20250;-79
2022/07/12 05:47:59;;;;;;;5.37;3.30;;;;;;;16.98;100.00;96792.94;5018423;28;20245;-79
2022/07/12 05:50:26;;;;;;;4.03;3.17;;;;;;;17.08;100.00;96797.69;5019598;28;20266;-79
2022/07/12 05:55:39;;;;;;;4.27;3.20;;;;;;;17.11;100.00;96800.69;5033432;28;20234;-79
2022/07/12 05:58:07;;;;;;;3.20;2.90;;;;;;;17.14;100.00;96810.25;5025588;28;20206;-79
2022/07/12 06:00:34;;;;;;;5.90;3.17;;;;;;;17.17;100.00;96810.59;5026254;28;20218;-75
2022/07/12 06:03:01;;;;;;;3.43;3.13;;;;;;;17.09;100.00;96808.34;5046497;28;20231;-75
2022/07/12 06:05:28;;;;;;;3.93;3.23;;;;;;;17.07;100.00;96815.94;5042099;28;20214;-75
2022/07/12 06:07:55;;;;;;;6.20;3.30;;;;;;;16.99;100.00;96817.25;5025787;28;20192;-75
2022/07/12 06:10:22;;;;;;;5.33;3.60;;;;;;;16.92;100.00;96816.66;5038927;28;20207;-75
2022/07/12 06:12:51;;;;;;;5.77;4.23;;;;;;;16.94;100.00;96822.66;5029364;28;20203;-75
2022/07/12 06:15:18;;;;;;;5.10;3.50;;;;;;;16.88;100.00;96818.22;5016091;28;20223;-75
2022/07/12 06:17:47;;;;;;;6.20;3.33;;;;;;;16.85;100.00;96828.81;5019838;28;20270;-75
2022/07/12 06:20:14;;;;;;;4.07;3.40;;;;;;;16.84;100.00;96817.09;5019218;28;20233;-75
2022/07/12 06:22:41;;;;;;;4.60;3.60;;;;;;;16.95;100.00;96834.38;5028355;28;20207;-75
2022/07/12 06:25:09;;;;;;;4.00;3.30;;;;;;;16.94;100.00;96830.81;5017718;28;20198;-75
2022/07/12 06:27:37;;;;;;;4.83;3.50;;;;;;;16.90;100.00;96823.44;5022879;28;20338;-75
2022/07/12 06:30:07;;;;;;;3.80;3.30;;;;;;;16.96;100.00;96830.56;5013774;28;20244;-75
2022/07/12 06:32:34;;;;;;;5.27;3.70;;;;;;;16.96;100.00;96819.66;5014682;28;20207;-75
2022/07/12 06:35:01;;;;;;;4.43;3.50;;;;;;;16.96;100.00;96825.94;5023039;28;20215;-75
2022/07/12 06:37:28;;;;;;;3.83;3.30;;;;;;;16.91;100.00;96822.34;5020411;28;20230;-75
2022/07/12 06:39:55;;;;;;;4.03;3.60;;;;;;;16.95;100.00;96823.47;5020341;28;20194;-75
2022/07/12 06:42:22;;;;;;;5.87;4.23;;;;;;;16.97;100.00;96826.75;5018327;28;20335;-75
2022/07/12 06:44:54;;;;;;;5.50;3.90;;;;;;;17.01;100.00;96827.91;5019394;28;20204;-75
2022/07/12 06:47:23;;;;;;;5.37;3.43;;;;;;;17.06;100.00;96829.84;5027215;28;20210;-75
2022/07/12 06:49:50;;;;;;;4.10;3.43;;;;;;;17.08;100.00;96827.69;5020681;28;20213;-75
2022/07/12 06:52:17;;;;;;;5.97;3.73;;;;;;;16.98;100.00;96837.44;5013888;28;20218;-77
2022/07/12 06:54:45;;;;;;;7.70;4.00;;;;;;;16.92;100.00;96824.00;5042654;28;20223;-77
2022/07/12 06:57:12;;;;;;;5.73;3.67;;;;;;;17.00;100.00;96831.72;5014845;28;20255;-80
2022/07/12 06:59:39;;;;;;;4.90;3.83;;;;;;;17.05;100.00;96834.47;5016960;28;20269;-80
2022/07/12 07:02:06;;;;;;;3.70;3.20;;;;;;;17.13;100.00;96834.00;5014460;28;20205;-80
2022/07/12 07:04:35;;;;;;;5.10;3.43;;;;;;;17.18;100.00;96831.31;5036790;28;20207;-80
2022/07/12 07:07:02;;;;;;;3.90;3.47;;;;;;;17.27;100.00;96832.47;5024420;28;20203;-80
2022/07/12 07:09:29;;;;;;;5.33;3.43;;;;;;;17.36;100.00;96833.63;5027641;28;20216;-80
2022/07/12 07:11:56;;;;;;;2.80;2.60;;;;;;;17.38;100.00;96827.91;5031555;28;20276;-80
2022/07/12 07:14:24;;;;;;;3.70;2.67;;;;;;;17.35;100.00;96823.81;5050885;28;20316;-80
2022/07/12 07:16:51;;;;;;;4.63;3.50;;;;;;;17.38;100.00;96834.22;5017359;28;20208;-77
2022/07/12 07:19:18;;;;;;;4.00;3.10;;;;;;;17.42;100.00;96828.22;5013820;28;20211;-77
2022/07/12 07:21:46;;;;;;;3.10;2.80;;;;;;;17.71;100.00;96830.38;5033337;28;20207;-77
2022/07/12 07:24:13;;;;;;;2.97;2.50;;;;;;;18.02;100.00;96838.75;5017106;28;20207;-77
2022/07/12 07:26:40;;;;;;;3.80;3.10;;;;;;;18.37;100.00;96838.09;5026052;28;20210;-77
2022/07/12 07:31:52;;;;;;;2.77;2.50;;;;;;;19.08;100.00;96841.84;5028394;28;20222;-77
2022/07/12 07:34:19;;;;;;;3.35;2.75;;;;;;;19.37;100.00;96839.41;5022664;28;20261;-78
2022/07/12 07:36:47;;;;;;;3.10;2.90;;;;;;;19.62;100.00;96838.59;5036128;28;20269;-78
2022/07/12 07:39:14;;;;;;;2.70;2.50;;;;;;;19.99;100.00;96835.47;5021915;28;20214;-77
2022/07/12 07:41:41;;;;;;;3.40;2.65;;;;;;;20.26;100.00;96846.91;5017917;28;20279;-78
2022/07/12 07:44:08;;;;;;;2.70;2.50;;;;;;;20.37;98.57;96840.31;5025525;28;20207;-77
2022/07/12 07:46:35;;;;;;;2.83;2.30;;;;;;;20.70;99.61;96836.06;5025456;28;20247;-78
2022/07/12 07:49:03;;;;;;;2.80;2.58;;;;;;;20.97;99.02;96832.88;5041427;28;20203;-77
2022/07/12 07:51:30;;;;;;;2.80;2.20;;;;;;;21.27;96.03;96829.09;5024774;28;20207;-78
2022/07/12 07:53:59;;;;;;;8.90;3.50;;;;;;;21.51;89.80;96829.22;5023467;28;20214;-77
2022/07/12 07:56:26;;;;;;;3.00;2.70;;;;;;;21.82;90.03;96836.03;5022758;28;20219;-78
2022/07/12 07:58:53;;;;;;;6.95;3.10;;;;;;;22.08;87.85;96833.88;5011051;28;20311;-78
2022/07/12 08:01:20;;;;;;;3.78;2.60;;;;;;;22.34;85.97;96826.16;5041604;28;20233;-77
2022/07/12 08:03:47;;;;;;;5.35;2.80;;;;;;;22.58;82.77;96842.63;5033750;28;20217;-78
2022/07/12 08:06:14;;;;;;;3.15;2.85;;;;;;;22.57;82.95;96825.31;5023546;28;20293;-77
2022/07/12 08:08:41;;;;;;;7.72;5.05;;;;;;;22.59;82.79;96825.84;5020228;28;20200;-78
2022/07/12 08:11:11;;;;;;;5.70;3.88;;;;;;;22.69;81.28;96821.31;5013923;28;20250;-78
2022/07/12 08:13:38;;;;;;;3.58;2.63;;;;;;;22.79;81.28;96824.78;5020890;28;20221;-78
2022/07/12 08:16:06;;;;;;;3.08;2.78;;;;;;;22.94;80.47;96815.47;5055148;28;20270;-78
2022/07/12 08:18:33;;;;;;;4.15;3.00;;;;;;;22.99;80.11;96821.72;5024231;28;20518;-78
2022/07/12 08:21:00;;;;;;;6.10;2.97;;;;;;;23.11;81.88;96829.53;5020501;28;20207;-78
2022/07/12 08:23:28;;;;;;;6.68;3.30;;;;;;;23.22;80.23;96824.69;5019399;28;20298;-78
2022/07/12 08:25:55;;;;;;;4.25;3.33;;;;;;;23.41;80.46;96817.19;5056006;28;20203;-78
2022/07/12 08:28:24;;;;;;;4.10;3.03;;;;;;;23.57;79.28;96820.53;5045861;28;20288;-78
2022/07/12 08:30:51;;;;;;;3.35;3.00;;;;;;;23.56;79.30;96813.44;5027394;28;20272;-77
2022/07/12 08:33:18;;;;;;;6.43;3.10;;;;;;;23.53;80.36;96819.53;5018988;28;20214;-78
2022/07/12 08:35:46;;;;;;;3.15;2.33;;;;;;;23.57;81.11;96815.03;5040984;28;20377;-78
2022/07/12 08:38:15;;;;;;;3.00;2.70;;;;;;;23.54;79.91;96821.16;5026180;28;20214;-78
2022/07/12 08:40:42;;;;;;;3.72;2.80;;;;;;;23.63;79.41;96813.84;5017325;28;20223;-78
2022/07/12 08:43:09;;;;;;;4.10;2.65;;;;;;;23.81;78.93;96812.16;5009717;28;20208;-78
2022/07/12 08:45:37;;;;;;;5.03;2.67;;;;;;;23.96;78.20;96804.41;5013298;28;20208;-78
2022/07/12 08:48:05;;;;;;;2.92;2.50;;;;;;;24.00;75.28;96805.41;5016865;28;20211;-78
2022/07/12 08:50:33;;;;;;;3.35;2.63;;;;;;;24.12;76.84;96808.50;5044939;28;20310;-78
2022/07/12 08:53:00;;;;;;;3.05;2.40;;;;;;;24.14;74.99;96808.22;5011433;28;20208;-78
2022/07/12 08:55:29;;;;;;;4.45;2.60;;;;;;;24.32;74.97;96803.75;5040266;28;20250;-79
2022/07/12 08:57:58;;;;;;;4.50;2.65;;;;;;;24.44;72.36;96801.28;5026328;28;20199;-78
2022/07/12 09:00:27;;;;;;;3.50;2.55;;;;;;;24.42;71.99;96811.78;5024615;28;20270;-78
2022/07/12 09:02:57;;;;;;;3.85;2.60;;;;;;;24.44;70.79;96802.09;5024433;28;20211;-78
2022/07/12 09:05:27;;;;;;;2.60;2.40;;;;;;;24.46;69.96;96794.31;5051127;28;20210;-78
2022/07/12 09:08:03;;;;;;;5.03;2.33;;;;;;;24.47;68.93;96795.16;5027852;28;20286;-78
2022/07/12 09:10:31;;;;;;;2.55;2.35;;;;;;;24.56;71.76;96803.50;5045661;28;20575;-78
2022/07/12 09:12:58;;;;;;;3.58;2.05;;;;;;;24.60;69.21;96797.06;5022000;28;20214;-78
2022/07/12 09:15:26;;;;;;;5.03;2.72;;;;;;;24.74;70.55;96799.81;5026873;28;20218;-78
2022/07/12 09:17:59;;;;;;;4.60;2.40;;;;;;;24.65;71.39;96796.97;5020269;28;20290;-78
2022/07/12 09:20:28;;;;;;;3.95;2.30;;;;;;;24.64;72.29;96798.09;5017322;28;20211;-78
2022/07/12 09:22:57;;;;;;;2.67;2.33;;;;;;;24.74;72.31;96794.28;5023704;28;20255;-78
2022/07/12 09:25:24;;;;;;;3.40;2.38;;;;;;;24.66;71.32;96792.25;5020621;28;20226;-78
2022/07/12 09:27:56;;;;;;;3.97;2.40;;;;;;;24.69;71.27;96792.44;5018151;28;20313;-78
2022/07/12 09:30:24;;;;;;;2.28;2.08;;;;;;;24.77;69.73;96800.00;5026333;28;20289;-78
2022/07/12 09:38:29;;;;;;;4.47;2.58;;;;;;;24.80;73.42;96799.38;5029926;28;20218;-78
2022/07/12 09:40:57;;;;;;;3.70;2.40;;;;;;;24.87;73.49;96799.75;5012194;28;20207;-78
2022/07/12 09:43:25;;;;;;;4.55;2.72;;;;;;;24.81;74.29;96800.19;5027291;28;20195;-78
2022/07/12 09:45:52;;;;;;;4.90;2.42;;;;;;;25.00;74.30;96792.63;5018577;28;20221;-78
2022/07/12 09:48:22;;;;;;;5.50;2.53;;;;;;;25.02;73.73;96797.81;5017100;28;20209;-78
2022/07/12 09:50:51;;;;;;;3.85;2.42;;;;;;;24.83;73.77;96793.25;5014099;28;20207;-78
2022/07/12 09:53:22;;;;;;;3.28;2.25;;;;;;;25.00;72.00;96791.78;5011885;28;20207;-78
2022/07/12 09:55:54;;;;;;;2.67;2.30;;;;;;;25.22;71.73;96800.09;5019339;28;20234;-78
2022/07/12 09:58:27;;;;;;;2.50;2.28;;;;;;;25.12;70.08;96790.09;5053282;28;20232;-78
2022/07/12 10:00:55;;;;;;;2.17;1.98;;;;;;;25.13;67.25;96788.16;5020019;28;20260;-78
2022/07/12 10:03:24;;;;;;;2.90;2.10;;;;;;;25.16;67.97;96793.06;5021401;28;20218;-78
2022/07/12 10:05:56;;;;;;;2.53;2.30;;;;;;;25.09;67.13;96784.41;5028885;28;20212;-78
2022/07/12 10:08:23;;;;;;;2.28;2.08;;;;;;;25.16;65.47;96791.13;5040398;28;20230;-78
2022/07/12 10:10:51;;;;;;;2.53;2.00;;;;;;;25.46;67.10;96785.97;5023362;28;20202;-78
2022/07/12 10:13:21;;;;;;;3.95;2.35;;;;;;;25.53;66.43;96792.66;5013572;28;20342;-77
2022/07/12 10:15:50;;;;;;;3.17;2.40;;;;;;;25.53;67.74;96789.91;5017594;28;20210;-77
2022/07/12 10:18:20;;;;;;;2.40;2.20;;;;;;;25.61;67.60;96791.13;5053430;28;20210;-77
2022/07/12 10:20:49;;;;;;;2.70;2.15;;;;;;;25.73;66.35;96790.56;5026928;28;20323;-77
2022/07/12 10:23:34;;;;;;;5.28;2.50;;;;;;;25.82;67.99;96780.34;5025967;28;20215;-78
2022/07/12 10:26:02;;;;;;;2.40;2.20;;;;;;;25.83;66.61;96787.53;5023897;28;20203;-79
2022/07/12 10:29:04;;;;;;;2.40;2.20;;;;;;;25.62;66.12;96790.81;5018959;28;20258;-78
2022/07/12 10:31:38;;;;;;;3.30;2.40;;;;;;;25.63;66.62;96797.97;5039246;28;20217;-78
2022/07/12 10:34:14;;;;;;;3.50;2.15;;;;;;;25.67;65.24;96791.81;5015822;28;20241;-78
2022/07/12 10:37:13;;;;;;;3.42;2.17;;;;;;;25.65;65.79;96783.03;5024188;28;20246;-78
2022/07/12 10:39:40;;;;;;;2.00;1.90;;;;;;;25.75;65.86;96791.06;4996746;28;20302;-78
2022/07/12 10:42:14;;;;;;;2.50;2.10;;;;;;;25.71;66.36;96812.16;5016795;28;20221;-78
2022/07/12 10:44:45;;;;;;;3.75;2.25;;;;;;;25.82;65.17;96795.00;5019837;28;20213;-79
2022/07/12 10:47:15;;;;;;;3.25;2.33;;;;;;;25.92;66.01;96796.69;5055104;28;20210;-78
2022/07/12 10:49:52;;;;;;;4.35;2.10;;;;;;;25.91;65.54;96787.56;5025420;28;20205;-78
2022/07/12 10:52:26;;;;;;;2.25;1.90;;;;;;;26.00;66.43;96795.91;5016502;28;20267;-78
2022/07/12 10:55:21;;;;;;;2.35;2.00;;;;;;;26.21;65.66;96799.72;5016737;28;20265;-78
2022/07/12 10:57:54;;;;;;;3.83;2.10;;;;;;;26.31;64.10;96799.47;5047668;28;20207;-78
2022/07/12 11:00:22;;;;;;;6.03;2.20;;;;;;;26.50;64.69;96796.47;5017879;28;20207;-78
2022/07/12 11:02:49;;;;;;;2.25;2.10;;;;;;;26.75;64.21;96803.19;5050615;28;20211;-78
2022/07/12 11:05:16;;;;;;;3.53;2.00;;;;;;;26.77;63.57;96806.47;5046231;28;20207;-77
2022/07/12 11:07:45;;;;;;;2.58;2.00;;;;;;;26.68;62.88;96786.25;5048655;28;20215;-78
2022/07/12 11:10:14;;;;;;;4.40;2.15;;;;;;;26.55;62.39;96795.47;5023085;28;20199;-78
2022/07/12 11:12:41;;;;;;;5.63;2.28;;;;;;;26.77;62.87;96795.38;5020375;28;20292;-77
2022/07/12 11:15:09;;;;;;;5.20;2.20;;;;;;;26.88;63.18;96788.38;5049767;28;20300;-77
2022/07/12 11:17:36;;;;;;;2.60;2.00;;;;;;;27.08;61.88;96785.00;5045122;28;20207;-78
2022/07/12 11:20:12;;;;;;;4.32;2.00;;;;;;;27.20;62.21;96791.84;5047329;28;20254;-78
2022/07/12 11:22:40;;;;;;;3.67;1.80;;;;;;;27.22;59.60;96778.50;5017286;28;20234;-78
2022/07/12 11:25:11;;;;;;;2.17;1.98;;;;;;;27.19;60.31;96784.69;5012776;28;20218;-77
2022/07/12 11:27:39;;;;;;;7.95;2.30;;;;;;;27.09;60.41;96781.09;5021247;28;20333;-77
2022/07/12 11:30:08;;;;;;;3.65;1.98;;;;;;;27.24;61.19;96773.41;5020115;28;20218;-77
2022/07/12 11:32:40;;;;;;;3.15;1.73;;;;;;;27.27;60.23;96770.00;5024418;28;20215;-78
2022/07/12 11:35:21;;;;;;;3.17;1.75;;;;;;;27.40;57.64;96775.34;5014775;28;20275;-78
2022/07/12 11:37:53;;;;;;;2.80;2.00;;;;;;;27.27;58.68;96770.00;5044728;28;20211;-77
2022/07/12 11:40:30;;;;;;;2.83;1.85;;;;;;;27.27;59.32;96781.91;5057611;28;20210;-77
2022/07/12 11:42:59;;;;;;;2.00;1.85;;;;;;;27.58;59.57;96776.19;5054883;28;20238;-77
2022/07/12 11:45:28;;;;;;;2.92;2.70;;;;;;;27.83;56.74;96771.72;5023650;28;20301;-77
2022/07/12 11:47:56;;;;;;;2.40;1.95;;;;;;;28.06;56.04;96763.97;5020083;28;20214;-77